Hanjin Phoenix — A8CN9 — position and weather

sailwx.info

Track history (hours):
 
Tides and Currents Weather Stations Pressure Air Temp Water Temp Dewpoint Dewpoint Depression Visibility Wind Speed Wind Dir Waves Ship Positions

Hanjin Phoenix

Last reported at 2015-Mar-14 12:00 UTC. Time now 2015-Mar-27 15:45 UTC.
Position N 25°18' W 058°42'.
Warning: this ship's position is 13 days out of date.

Length 282.1 m; beam 32.2 m; draft 13 m.

Type: Ship. MMSI: 636090671.

Wind from 050 at 27 knots

Waves 2.5 meters (8 feet), 5 second period

Barometer 1021.2 mb
Air temperature 23.0 ° C
Visibility: greater than 5.4 NM
Dewpoint 15.2 ° C
Water temperature 24.0 ° C

Date/timePositionNaut miles runAvg speedWind from/ knotsBaromVisibWave heightAir tempDewpointWater temp
2015-Mar-14 12:00N 25°18' W 058°42'35114.6 050 / 271021.2 5.4 2.523.015.224.0
2015-Mar-13 12:00N 27°06' W 052°30'35114.6 300 / 101018.210.8 0.522.817.822.9
2015-Mar-12 12:00N 28°54' W 046°12'   170 / 101024.2 5.4 0.521.514.321.1
2015-Mar-09 15:33N 33°53' W 026°11'1918.1
2015-Mar-09 14:29N 33°57' W 025°48'2618.2
2015-Mar-09 13:03N 34°02' W 025°17'918.1
2015-Mar-09 12:33N 34°04' W 025°07'1818.2
2015-Mar-09 11:33N 34°08' W 024°45'1817.9
2015-Mar-09 10:33N 34°12' W 024°24'1817.9
2015-Mar-09 09:33N 34°15' W 024°03'1717.1
2015-Mar-09 08:34N 34°19' W 023°43'1716.6
2015-Mar-09 07:33N 34°22' W 023°23'1716.5
2015-Mar-09 06:33N 34°26' W 023°03'1616.3
2015-Mar-09 05:33N 34°29' W 022°44'2016.2
2015-Mar-09 04:19N 34°33' W 022°20'1316.4
2015-Mar-09 03:33N 34°36' W 022°05'1616.1
2015-Mar-09 02:33N 34°39' W 021°46'3115.7
2015-Mar-09 00:33N 34°46' W 021°09'1615.7
2015-Mar-08 23:33N 34°49' W 020°50'1715.9
2015-Mar-08 22:30N 34°52' W 020°30'1515.9
2015-Mar-08 21:34N 34°55' W 020°12'1616.0
2015-Mar-08 20:33N 34°58' W 019°53'1716.9
2015-Mar-08 19:33N 34°60' W 019°33'1818.3
2015-Mar-08 18:34N 35°02' W 019°10'1818.0
2015-Mar-08 17:34N 35°04' W 018°49'1818.0
2015-Mar-08 16:33N 35°06' W 018°27'1817.9
2015-Mar-08 15:33N 35°08' W 018°05'1818.1
2015-Mar-08 14:33N 35°10' W 017°43'1818.3
2015-Mar-08 13:33N 35°11' W 017°21'1818.2
2015-Mar-08 12:33N 35°13' W 016°58'1818.2
2015-Mar-08 11:33N 35°15' W 016°36'1818.1
2015-Mar-08 10:32N 35°17' W 016°14'1818.0
2015-Mar-08 09:33N 35°19' W 015°52'1817.5
2015-Mar-08 08:33N 35°21' W 015°31'1717.1
2015-Mar-08 07:33N 35°23' W 015°10'1616.3
2015-Mar-08 06:33N 35°25' W 014°50'1616.1
2015-Mar-08 05:33N 35°26' W 014°31'1616.2
2015-Mar-08 04:33N 35°28' W 014°11'1616.2
2015-Mar-08 03:33N 35°30' W 013°51'1616.1
2015-Mar-08 02:33N 35°32' W 013°32'1616.0
2015-Mar-08 01:33N 35°33' W 013°12'6616.0
2015-Mar-07 21:25N 35°40' W 011°51'1915.9
2015-Mar-07 20:15N 35°42' W 011°28'1116.0
2015-Mar-07 19:33N 35°44' W 011°15'1716.7
2015-Mar-07 18:33N 35°45' W 010°54'1817.9
2015-Mar-07 17:34N 35°47' W 010°32'1817.9
2015-Mar-07 16:33N 35°49' W 010°10'1818.1
2015-Mar-07 15:33N 35°50' W 009°48'1818.1
2015-Mar-07 14:33N 35°51' W 009°26'2418.2
2015-Mar-07 13:16N 35°52' W 008°57'6918.4
2015-Mar-07 09:30N 35°55' W 007°32'9916.5
2015-Mar-07 03:32N 35°59' W 005°30'1515.2
2015-Mar-07 02:33N 36°03' W 005°12'20016.4
2015-Mar-06 14:22N 37°05' W 001°15'1518.4
2015-Mar-06 13:33N 37°15' W 001°01'1918.9
2015-Mar-06 12:33N 37°28' W 000°43'1918.9
2015-Mar-06 11:34N 37°42' W 000°28'1919.0
2015-Mar-06 10:33N 37°57' W 000°14'2518.9
2015-Mar-06 09:14N 38°18' E 000°04'1418.5
2015-Mar-06 08:29N 38°30' E 000°14'1717.8
2015-Mar-06 07:33N 38°45' E 000°23'4815.5
2015-Mar-06 04:27N 39°24' W 000°13'5 5.5
2015-Mar-06 03:31N 39°27' W 000°19'0 0.0
2015-Mar-06 02:33N 39°27' W 000°19'0 0.0
2015-Mar-06 01:30N 39°27' W 000°19'0 0.0
2015-Mar-06 00:33N 39°27' W 000°19'0 0.0
2015-Mar-05 23:33N 39°27' W 000°19'0 0.0
2015-Mar-05 22:29N 39°27' W 000°19'0 0.0
2015-Mar-05 21:33N 39°27' W 000°19'0 0.0
2015-Mar-05 20:33N 39°27' W 000°19'0 0.0
2015-Mar-05 19:33N 39°27' W 000°19'0 0.0
2015-Mar-05 18:32N 39°27' W 000°19'0 0.0
2015-Mar-05 17:32N 39°27' W 000°19'0 0.0
2015-Mar-05 16:32N 39°27' W 000°19'0 0.0
2015-Mar-05 15:32N 39°27' W 000°19'0 0.0
2015-Mar-05 14:29N 39°27' W 000°19'0 0.0
2015-Mar-05 13:32N 39°27' W 000°19'0 0.0
2015-Mar-05 12:32N 39°27' W 000°19'0 0.0
2015-Mar-05 11:32N 39°27' W 000°19'0 0.0
2015-Mar-05 10:32N 39°27' W 000°19'0 0.0
2015-Mar-05 09:33N 39°27' W 000°19'0 0.0
2015-Mar-05 08:33N 39°27' W 000°19'1 0.8
2015-Mar-05 07:33N 39°26' W 000°19'1110.6
2015-Mar-05 06:33N 39°26' W 000°05'8 2.1
2015-Mar-05 02:32N 39°17' W 000°05'3 1.0
2015-Mar-04 23:09N 39°21' W 000°05'1 1.4
2015-Mar-04 22:33N 39°22' W 000°05'2 1.5
2015-Mar-04 21:31N 39°23' W 000°05'2 1.6
2015-Mar-04 20:32N 39°24' W 000°06'1 1.5
2015-Mar-04 19:33N 39°26' W 000°06'2 2.4
2015-Mar-04 18:33N 39°26' W 000°03'7 2.1
2015-Mar-04 15:17N 39°28' E 000°05'  
Track history (hours):
 
Tides and Currents Weather Stations Pressure Air Temp Water Temp Dewpoint Dewpoint Depression Visibility Wind Speed Wind Dir Waves Ship Positions

Hanjin Phoenix

Last reported at 2015-Mar-14 12:00 UTC. Time now 2015-Mar-27 15:45 UTC.
Position N 25°18' W 058°42'.
Warning: this ship's position is 13 days out of date.

Length 282.1 m; beam 32.2 m; draft 13 m.

Type: Ship. MMSI: 636090671.

Wind from 050 at 27 knots

Waves 2.5 meters (8 feet), 5 second period

Barometer 1021.2 mb
Air temperature 23.0 ° C
Visibility: greater than 5.4 NM
Dewpoint 15.2 ° C
Water temperature 24.0 ° C

Date/timePositionNaut miles runAvg speedWind from/ knotsBaromVisibWave heightAir tempDewpointWater temp
2015-Mar-14 12:00N 25°18' W 058°42'35114.6 050 / 271021.2 5.4 2.523.015.224.0
2015-Mar-13 12:00N 27°06' W 052°30'35114.6 300 / 101018.210.8 0.522.817.822.9
2015-Mar-12 12:00N 28°54' W 046°12'   170 / 101024.2 5.4 0.521.514.321.1
2015-Mar-09 15:33N 33°53' W 026°11'1918.1
2015-Mar-09 14:29N 33°57' W 025°48'2618.2
2015-Mar-09 13:03N 34°02' W 025°17'918.1
2015-Mar-09 12:33N 34°04' W 025°07'1818.2
2015-Mar-09 11:33N 34°08' W 024°45'1817.9
2015-Mar-09 10:33N 34°12' W 024°24'1817.9
2015-Mar-09 09:33N 34°15' W 024°03'1717.1
2015-Mar-09 08:34N 34°19' W 023°43'1716.6
2015-Mar-09 07:33N 34°22' W 023°23'1716.5
2015-Mar-09 06:33N 34°26' W 023°03'1616.3
2015-Mar-09 05:33N 34°29' W 022°44'2016.2
2015-Mar-09 04:19N 34°33' W 022°20'1316.4
2015-Mar-09 03:33N 34°36' W 022°05'1616.1
2015-Mar-09 02:33N 34°39' W 021°46'3115.7
2015-Mar-09 00:33N 34°46' W 021°09'1615.7
2015-Mar-08 23:33N 34°49' W 020°50'1715.9
2015-Mar-08 22:30N 34°52' W 020°30'1515.9
2015-Mar-08 21:34N 34°55' W 020°12'1616.0
2015-Mar-08 20:33N 34°58' W 019°53'1716.9
2015-Mar-08 19:33N 34°60' W 019°33'1818.3
2015-Mar-08 18:34N 35°02' W 019°10'1818.0
2015-Mar-08 17:34N 35°04' W 018°49'1818.0
2015-Mar-08 16:33N 35°06' W 018°27'1817.9
2015-Mar-08 15:33N 35°08' W 018°05'1818.1
2015-Mar-08 14:33N 35°10' W 017°43'1818.3
2015-Mar-08 13:33N 35°11' W 017°21'1818.2
2015-Mar-08 12:33N 35°13' W 016°58'1818.2
2015-Mar-08 11:33N 35°15' W 016°36'1818.1
2015-Mar-08 10:32N 35°17' W 016°14'1818.0
2015-Mar-08 09:33N 35°19' W 015°52'1817.5
2015-Mar-08 08:33N 35°21' W 015°31'1717.1
2015-Mar-08 07:33N 35°23' W 015°10'1616.3
2015-Mar-08 06:33N 35°25' W 014°50'1616.1
2015-Mar-08 05:33N 35°26' W 014°31'1616.2
2015-Mar-08 04:33N 35°28' W 014°11'1616.2
2015-Mar-08 03:33N 35°30' W 013°51'1616.1
2015-Mar-08 02:33N 35°32' W 013°32'1616.0
2015-Mar-08 01:33N 35°33' W 013°12'6616.0
2015-Mar-07 21:25N 35°40' W 011°51'1915.9
2015-Mar-07 20:15N 35°42' W 011°28'1116.0
2015-Mar-07 19:33N 35°44' W 011°15'1716.7
2015-Mar-07 18:33N 35°45' W 010°54'1817.9
2015-Mar-07 17:34N 35°47' W 010°32'1817.9
2015-Mar-07 16:33N 35°49' W 010°10'1818.1
2015-Mar-07 15:33N 35°50' W 009°48'1818.1
2015-Mar-07 14:33N 35°51' W 009°26'2418.2
2015-Mar-07 13:16N 35°52' W 008°57'6918.4
2015-Mar-07 09:30N 35°55' W 007°32'9916.5
2015-Mar-07 03:32N 35°59' W 005°30'1515.2
2015-Mar-07 02:33N 36°03' W 005°12'20016.4
2015-Mar-06 14:22N 37°05' W 001°15'1518.4
2015-Mar-06 13:33N 37°15' W 001°01'1918.9
2015-Mar-06 12:33N 37°28' W 000°43'1918.9
2015-Mar-06 11:34N 37°42' W 000°28'1919.0
2015-Mar-06 10:33N 37°57' W 000°14'2518.9
2015-Mar-06 09:14N 38°18' E 000°04'1418.5
2015-Mar-06 08:29N 38°30' E 000°14'1717.8
2015-Mar-06 07:33N 38°45' E 000°23'4815.5
2015-Mar-06 04:27N 39°24' W 000°13'5 5.5
2015-Mar-06 03:31N 39°27' W 000°19'0 0.0
2015-Mar-06 02:33N 39°27' W 000°19'0 0.0
2015-Mar-06 01:30N 39°27' W 000°19'0 0.0
2015-Mar-06 00:33N 39°27' W 000°19'0 0.0
2015-Mar-05 23:33N 39°27' W 000°19'0 0.0
2015-Mar-05 22:29N 39°27' W 000°19'0 0.0
2015-Mar-05 21:33N 39°27' W 000°19'0 0.0
2015-Mar-05 20:33N 39°27' W 000°19'0 0.0
2015-Mar-05 19:33N 39°27' W 000°19'0 0.0
2015-Mar-05 18:32N 39°27' W 000°19'0 0.0
2015-Mar-05 17:32N 39°27' W 000°19'0 0.0
2015-Mar-05 16:32N 39°27' W 000°19'0 0.0
2015-Mar-05 15:32N 39°27' W 000°19'0 0.0
2015-Mar-05 14:29N 39°27' W 000°19'0 0.0
2015-Mar-05 13:32N 39°27' W 000°19'0 0.0
2015-Mar-05 12:32N 39°27' W 000°19'0 0.0
2015-Mar-05 11:32N 39°27' W 000°19'0 0.0
2015-Mar-05 10:32N 39°27' W 000°19'0 0.0
2015-Mar-05 09:33N 39°27' W 000°19'0 0.0
2015-Mar-05 08:33N 39°27' W 000°19'1 0.8
2015-Mar-05 07:33N 39°26' W 000°19'1110.6
2015-Mar-05 06:33N 39°26' W 000°05'8 2.1
2015-Mar-05 02:32N 39°17' W 000°05'3 1.0
2015-Mar-04 23:09N 39°21' W 000°05'1 1.4
2015-Mar-04 22:33N 39°22' W 000°05'2 1.5
2015-Mar-04 21:31N 39°23' W 000°05'2 1.6
2015-Mar-04 20:32N 39°24' W 000°06'1 1.5
2015-Mar-04 19:33N 39°26' W 000°06'2 2.4
2015-Mar-04 18:33N 39°26' W 000°03'7 2.1
2015-Mar-04 15:17N 39°28' E 000°05'  

Dump ship's entire track history